Portada
METAR-TAF:

METAR-TAF

Aeroports :

Guilin, Xina

latitud: 25-20N, longitud: 110-18E, altitud: 166 m

Observació

L'informe es va fer fa 45 minuts, a les 14:00 UTC
Vent 4 kt amb direcció variable
Temperatura 7°C
Humitat 87%
Pressió 1022 hPa
Visibilitat 10 km o més
Cel ennuvolat a una alçada de 3600 ft
Cel ennuvolat a una alçada de 6600 ft

METAR: ZGKL 231400Z VRB02MPS 9999 BKN036 BKN066 07/05 Q1022 NOSIG

Hora: 22:45 (14:45 UTC)

Pronòstic

L'informe es va fer fa 5 hores i 34 minuts, a les 09:11 UTC
Pronòstic vàlid del 23 a les 12 UTC al 24 a les 12 UTC
Vent 6 kt del Nord-Est
Visibilitat: 6000 m
Escasses núvols a una alçada de 1600 ft
Núvols disperses a una alçada de 3000 ft
Cel cobert a una alçada de 5000 ft

TAF: ZGKL 230911Z 2312/2412 05003MPS 6000 FEW016 SCT030 OVC050 TX09/2408Z TN05/2322Z

Observacions i pronòstics meteorològics de més de 4000 aeroports (METAR i TAF).

Les estacions disponibles són els punts grocs i vermells al mapa.

Posi el ratolí al punt desitjat per veure el nom de l'estació.

Feu clic per veure les observacions i els pronòstics meteorològics.

Per canviar el mapa: feu clic els botons verds amb una creu de color negre per apropar; al botó verd amb un guió per allunyar la imatge; o en les fletxes verdes per a mapes adjacents.


METAR-TAF: